TimeMDT,TemperatureF,Dew PointF,Humidity,Sea Level PressureIn,VisibilityMPH,Wind Direction,Wind SpeedMPH,Gust SpeedMPH,PrecipitationIn,Events,Conditions,WindDirDegrees,DateUTC
12:52 AM,32.0,21.9,66,30.16,10.0,ENE,6.9,-,N/A,,Clear,60,2013-04-02 06:52:00
1:52 AM,30.0,21.9,72,30.15,10.0,Calm,Calm,-,N/A,,Clear,0,2013-04-02 07:52:00
2:52 AM,27.0,21.0,78,30.13,10.0,Calm,Calm,-,N/A,,Clear,0,2013-04-02 08:52:00
3:52 AM,28.0,21.9,78,30.13,10.0,WSW,5.8,-,N/A,,Clear,250,2013-04-02 09:52:00
4:52 AM,24.1,19.9,84,30.15,10.0,WSW,5.8,-,N/A,,Clear,250,2013-04-02 10:52:00
5:52 AM,24.1,19.0,81,30.16,10.0,WSW,4.6,-,N/A,,Clear,240,2013-04-02 11:52:00
6:52 AM,24.1,19.9,84,30.19,10.0,WNW,4.6,-,N/A,,Clear,300,2013-04-02 12:52:00
7:52 AM,30.0,23.0,75,30.21,10.0,WSW,5.8,-,N/A,,Clear,250,2013-04-02 13:52:00
8:52 AM,37.0,25.0,62,30.20,10.0,WSW,6.9,-,N/A,,Clear,250,2013-04-02 14:52:00
9:52 AM,42.1,25.0,51,30.20,10.0,West,3.5,-,N/A,,Clear,280,2013-04-02 15:52:00
11:52 AM,53.1,19.9,27,30.17,10.0,NE,9.2,-,N/A,,Clear,50,2013-04-02 17:52:00
12:52 PM,55.9,17.1,22,30.15,10.0,East,5.8,-,N/A,,Clear,80,2013-04-02 18:52:00
1:52 PM,55.9,15.1,20,30.14,10.0,Variable,3.5,-,N/A,,Clear,0,2013-04-02 19:52:00
2:52 PM,57.0,16.0,20,30.13,10.0,SE,5.8,-,N/A,,Clear,140,2013-04-02 20:52:00
3:52 PM,57.9,12.9,17,30.11,10.0,Variable,6.9,-,N/A,,Clear,0,2013-04-02 21:52:00
4:52 PM,57.9,14.0,18,30.12,10.0,ENE,3.5,-,N/A,,Clear,60,2013-04-02 22:52:00
5:52 PM,55.9,16.0,21,30.12,10.0,East,9.2,-,N/A,,Clear,80,2013-04-02 23:52:00
6:52 PM,52.0,18.0,26,30.13,10.0,East,9.2,-,N/A,,Clear,80,2013-04-03 00:52:00
7:52 PM,42.1,19.9,41,30.14,10.0,East,8.1,-,N/A,,Clear,80,2013-04-03 01:52:00
8:52 PM,36.0,19.9,52,30.15,10.0,ENE,6.9,-,N/A,,Clear,70,2013-04-03 02:52:00
10:52 PM,42.1,23.0,47,30.13,10.0,SE,10.4,-,N/A,,Clear,130,2013-04-03 04:52:00
11:52 PM,41.0,25.0,53,30.10,10.0,Calm,Calm,-,N/A,,Clear,0,2013-04-03 05:52:00